createdAt,value
2018-08-28T00:00:22.650Z,4.40
2018-08-28T00:02:49.105Z,7.40
2018-08-28T00:05:15.545Z,5.60
2018-08-28T00:07:42.297Z,6.00
2018-08-28T00:10:08.753Z,6.20
2018-08-28T00:12:35.197Z,3.00
2018-08-28T00:15:02.613Z,5.60
2018-08-28T00:17:29.356Z,1.80
2018-08-28T00:19:55.822Z,6.60
2018-08-28T00:22:22.277Z,6.00
2018-08-28T00:24:49.032Z,6.80
2018-08-28T00:27:15.493Z,5.60
2018-08-28T00:29:41.961Z,4.00
2018-08-28T00:32:08.417Z,5.20
2018-08-28T00:34:35.166Z,4.80
2018-08-28T00:37:01.625Z,6.60
2018-08-28T00:39:28.081Z,7.00
2018-08-28T00:41:54.838Z,4.00
2018-08-28T00:44:21.289Z,4.80
2018-08-28T00:46:47.737Z,4.40
2018-08-28T00:49:14.453Z,6.40
2018-08-28T00:51:41.196Z,5.60
2018-08-28T00:54:08.188Z,6.00
2018-08-28T00:56:34.657Z,5.20
2018-08-28T00:59:01.115Z,7.80
2018-08-28T01:01:27.857Z,7.00
2018-08-28T01:03:54.326Z,6.20
2018-08-28T01:06:20.784Z,7.00
2018-08-28T01:08:47.234Z,3.40
2018-08-28T01:11:13.996Z,6.80
2018-08-28T01:13:40.485Z,6.40
2018-08-28T01:16:06.977Z,6.00
2018-08-28T01:18:33.437Z,7.40
2018-08-28T01:21:00.201Z,7.00
2018-08-28T01:23:26.653Z,6.00
2018-08-28T01:25:53.107Z,6.00
2018-08-28T01:28:19.916Z,6.00
2018-08-28T01:30:46.370Z,6.00
2018-08-28T01:33:12.834Z,6.00
2018-08-28T01:35:39.290Z,6.60
2018-08-28T01:38:06.037Z,6.60
2018-08-28T01:40:32.489Z,6.80
2018-08-28T01:42:59.863Z,6.00
2018-08-28T01:45:26.605Z,7.00
2018-08-28T01:47:53.070Z,6.00
2018-08-28T01:50:19.542Z,3.60
2018-08-28T01:52:46.286Z,6.00
2018-08-28T01:55:12.754Z,5.20
2018-08-28T01:57:39.205Z,5.20
2018-08-28T02:00:05.661Z,4.00
2018-08-28T02:02:32.450Z,6.80
2018-08-28T02:04:58.920Z,6.00
2018-08-28T02:07:25.403Z,6.40
2018-08-28T02:09:51.873Z,7.40
2018-08-28T02:12:18.621Z,0.20
2018-08-28T02:14:45.078Z,5.60
2018-08-28T02:17:11.546Z,7.60
2018-08-28T02:19:38.005Z,9.00
2018-08-28T02:22:04.745Z,7.20
2018-08-28T02:24:31.216Z,10.60
2018-08-28T02:26:57.674Z,9.00
2018-08-28T02:29:24.124Z,7.40
2018-08-28T02:31:50.869Z,6.40
2018-08-28T02:34:17.330Z,6.20
2018-08-28T02:36:43.798Z,6.80
2018-08-28T02:39:10.570Z,5.60
2018-08-28T02:41:37.024Z,4.40
2018-08-28T02:44:03.495Z,6.00
2018-08-28T02:46:29.959Z,6.40
2018-08-28T02:48:56.741Z,6.40
2018-08-28T02:51:23.214Z,7.40
2018-08-28T02:53:49.688Z,7.00
2018-08-28T02:56:16.193Z,6.60
2018-08-28T02:58:42.964Z,6.60
2018-08-28T03:01:09.426Z,7.00
2018-08-28T03:03:35.884Z,9.00
2018-08-28T03:06:02.343Z,6.00
2018-08-28T03:08:29.107Z,9.00
2018-08-28T03:10:55.563Z,8.60
2018-08-28T03:13:22.013Z,6.00
2018-08-28T03:15:48.776Z,6.80
2018-08-28T03:18:15.247Z,9.20
2018-08-28T03:20:41.690Z,6.40
2018-08-28T03:23:08.446Z,6.00
2018-08-28T03:25:34.897Z,6.20
2018-08-28T03:28:01.378Z,6.00
2018-08-28T03:30:27.903Z,6.00
2018-08-28T03:32:54.647Z,9.80
2018-08-28T03:35:21.104Z,7.00
2018-08-28T03:37:47.554Z,6.60
2018-08-28T03:40:14.081Z,6.00
2018-08-28T03:42:40.825Z,9.00
2018-08-28T03:45:07.276Z,9.20
2018-08-28T03:47:33.742Z,10.00
2018-08-28T03:52:31.742Z,8.60
2018-08-28T03:54:58.190Z,9.00
2018-08-28T03:57:24.681Z,9.00
2018-08-28T03:59:51.148Z,8.60
2018-08-28T04:02:17.901Z,6.20
2018-08-28T04:04:44.369Z,7.40
2018-08-28T04:07:10.864Z,7.80
2018-08-28T04:09:37.615Z,8.80
2018-08-28T04:12:04.076Z,9.00
2018-08-28T04:14:30.530Z,7.80
2018-08-28T04:16:57.323Z,7.40
2018-08-28T04:19:23.791Z,4.00
2018-08-28T04:21:50.255Z,5.20
2018-08-28T04:24:16.721Z,5.20
2018-08-28T04:26:43.485Z,7.00
2018-08-28T04:29:09.977Z,7.00
2018-08-28T04:31:36.522Z,5.20
2018-08-28T04:34:03.572Z,9.00
2018-08-28T04:36:30.075Z,8.20
2018-08-28T04:38:56.554Z,7.80
2018-08-28T04:41:23.389Z,9.00
2018-08-28T04:43:49.929Z,7.00
2018-08-28T04:46:16.409Z,7.00
2018-08-28T04:48:43.204Z,9.20
2018-08-28T04:51:09.669Z,8.20
2018-08-28T04:53:36.262Z,7.80
2018-08-28T04:56:03.030Z,8.60
2018-08-28T04:58:30.049Z,7.00
2018-08-28T05:00:56.626Z,8.60
2018-08-28T05:03:23.090Z,5.20
2018-08-28T05:05:51.140Z,9.40
2018-08-28T05:08:17.749Z,6.20
2018-08-28T05:10:44.712Z,7.80
2018-08-28T05:13:11.210Z,4.00
2018-08-28T05:15:37.691Z,7.00
2018-08-28T05:18:04.439Z,7.00
2018-08-28T05:20:30.887Z,9.00
2018-08-28T05:22:57.352Z,9.00
2018-08-28T05:25:24.134Z,6.80
2018-08-28T05:27:50.598Z,9.00
2018-08-28T05:30:17.096Z,7.00
2018-08-28T05:32:43.874Z,9.00
2018-08-28T05:35:10.327Z,7.80
2018-08-28T05:37:36.798Z,6.80
2018-08-28T05:40:04.210Z,9.00
2018-08-28T05:42:30.668Z,9.00
2018-08-28T05:44:57.147Z,6.80
2018-08-28T05:47:25.053Z,6.60
2018-08-28T05:49:51.545Z,9.40
2018-08-28T05:52:18.028Z,7.40
2018-08-28T05:54:44.795Z,7.00
2018-08-28T05:57:11.252Z,7.00
2018-08-28T05:59:37.714Z,6.60
2018-08-28T06:02:05.186Z,5.40
2018-08-28T06:04:31.705Z,6.00
2018-08-28T06:06:59.199Z,6.60
2018-08-28T06:09:26.716Z,7.60
2018-08-28T06:11:53.217Z,8.80
2018-08-28T06:14:20.321Z,7.00
2018-08-28T06:16:47.870Z,5.60
2018-08-28T06:19:14.328Z,7.40
2018-08-28T06:21:40.789Z,6.00
2018-08-28T06:24:08.175Z,9.00
2018-08-28T06:26:34.712Z,9.20
2018-08-28T06:29:01.159Z,9.40
2018-08-28T06:31:27.937Z,7.20
2018-08-28T06:33:54.422Z,1.00
2018-08-28T06:36:20.940Z,8.60
2018-08-28T06:38:47.683Z,7.00
2018-08-28T06:41:14.388Z,8.20
2018-08-28T06:43:40.882Z,9.40
2018-08-28T06:46:07.665Z,9.20
2018-08-28T06:48:34.132Z,6.00
2018-08-28T06:51:00.665Z,6.80
2018-08-28T06:53:27.471Z,8.60
2018-08-28T06:55:53.961Z,9.40
2018-08-28T06:58:21.160Z,6.60
2018-08-28T07:00:47.921Z,6.00
2018-08-28T07:03:14.398Z,6.40
2018-08-28T07:05:40.861Z,10.00
2018-08-28T07:08:07.629Z,6.40
2018-08-28T07:10:34.120Z,8.20
2018-08-28T07:13:00.635Z,6.00
2018-08-28T07:15:27.389Z,9.40
2018-08-28T07:17:53.839Z,7.40
2018-08-28T07:20:20.525Z,7.00
2018-08-28T07:22:47.281Z,9.00
2018-08-28T07:25:14.568Z,9.20
2018-08-28T07:27:41.070Z,6.00
2018-08-28T07:30:07.858Z,7.80
2018-08-28T07:32:34.321Z,6.00
2018-08-28T07:35:00.787Z,7.00
2018-08-28T07:37:28.184Z,9.40
2018-08-28T07:39:54.605Z,9.00
2018-08-28T07:42:21.067Z,8.60
2018-08-28T07:44:48.449Z,6.20
2018-08-28T07:47:15.950Z,9.00
2018-08-28T07:49:42.414Z,9.00
2018-08-28T07:52:10.188Z,8.60
2018-08-28T07:54:37.456Z,6.40
2018-08-28T07:57:03.969Z,6.20
2018-08-28T07:59:31.395Z,7.00
2018-08-28T08:01:57.876Z,6.80
2018-08-28T08:04:24.941Z,7.00
2018-08-28T08:06:51.697Z,7.00
2018-08-28T08:09:18.181Z,8.80
2018-08-28T08:11:45.572Z,3.00
2018-08-28T08:14:14.629Z,7.00
2018-08-28T08:16:41.730Z,4.20
2018-08-28T08:19:08.222Z,7.00
2018-08-28T08:21:35.130Z,6.60
2018-08-28T08:24:01.620Z,5.00
2018-08-28T08:26:28.086Z,5.20
2018-08-28T08:28:54.857Z,1.00
2018-08-28T08:31:21.365Z,3.60
2018-08-28T08:33:48.807Z,5.20
2018-08-28T08:36:16.405Z,6.60
2018-08-28T08:38:42.873Z,6.60
2018-08-28T08:41:09.335Z,4.80
2018-08-28T08:43:36.237Z,5.00
2018-08-28T08:46:02.707Z,3.20
2018-08-28T08:48:29.173Z,6.60
2018-08-28T08:50:55.949Z,4.00
2018-08-28T08:53:22.461Z,4.80
2018-08-28T08:55:48.984Z,4.00
2018-08-28T08:58:15.757Z,5.00
2018-08-28T09:00:42.247Z,4.00
2018-08-28T09:03:09.385Z,5.00
2018-08-28T09:05:35.861Z,6.60
2018-08-28T09:08:03.425Z,4.60
2018-08-28T09:10:31.109Z,2.80
2018-08-28T09:12:57.597Z,2.40
2018-08-28T09:15:26.605Z,5.00
2018-08-28T09:17:53.463Z,5.00
2018-08-28T09:20:21.162Z,4.00
2018-08-28T09:22:47.633Z,2.40
2018-08-28T09:25:14.463Z,3.60
2018-08-28T09:27:41.958Z,4.00
2018-08-28T09:30:08.481Z,4.40
2018-08-28T09:32:35.335Z,4.20
2018-08-28T09:35:01.833Z,4.00
2018-08-28T09:37:28.346Z,4.60
2018-08-28T09:39:59.242Z,2.00
2018-08-28T09:42:26.504Z,5.00
2018-08-28T09:44:53.038Z,1.40
2018-08-28T09:47:20.917Z,4.20
2018-08-28T09:49:49.581Z,4.00
2018-08-28T09:52:16.954Z,4.00
2018-08-28T09:54:44.339Z,3.60
2018-08-28T09:57:10.819Z,5.00
2018-08-28T09:59:37.313Z,2.00
2018-08-28T10:02:04.953Z,4.00
2018-08-28T10:04:31.500Z,5.20
2018-08-28T10:06:58.903Z,4.40
2018-08-28T10:09:26.250Z,4.20
2018-08-28T10:11:52.735Z,5.00
2018-08-28T10:14:19.218Z,5.00
2018-08-28T10:16:46.972Z,5.00
2018-08-28T10:19:13.470Z,4.00
2018-08-28T10:21:39.989Z,5.00
2018-08-28T10:24:06.920Z,4.40
2018-08-28T10:26:34.462Z,4.00
2018-08-28T10:29:01.795Z,3.20
2018-08-28T10:31:29.648Z,4.20
2018-08-28T10:33:56.962Z,4.60
2018-08-28T10:36:23.448Z,6.20
2018-08-28T10:38:51.281Z,2.80
2018-08-28T10:41:17.795Z,5.00
2018-08-28T10:43:44.323Z,4.20
2018-08-28T10:46:11.432Z,4.80
2018-08-28T10:48:37.927Z,5.00
2018-08-28T10:51:04.405Z,6.00
2018-08-28T10:53:32.143Z,5.00
2018-08-28T10:55:58.648Z,4.40
2018-08-28T10:58:25.204Z,4.80
2018-08-28T11:00:53.048Z,5.00
2018-08-28T11:03:20.105Z,5.00
2018-08-28T11:05:46.602Z,4.60
2018-08-28T11:08:13.953Z,4.20
2018-08-28T11:10:40.479Z,6.00
2018-08-28T11:13:06.986Z,4.00
2018-08-28T11:15:33.738Z,4.00
2018-08-28T11:18:02.126Z,4.40
2018-08-28T11:20:30.106Z,2.40
2018-08-28T11:22:58.186Z,2.40
2018-08-28T11:25:24.686Z,5.60
2018-08-28T11:27:52.714Z,5.00
2018-08-28T11:30:19.519Z,5.40
2018-08-28T11:32:46.615Z,8.20
2018-08-28T11:35:13.411Z,4.60
2018-08-28T11:37:40.295Z,4.60
2018-08-28T11:40:06.832Z,6.00
2018-08-28T11:42:33.485Z,5.00
2018-08-28T11:45:00.391Z,4.20
2018-08-28T11:47:27.877Z,4.40
2018-08-28T11:49:54.388Z,4.40
2018-08-28T12:04:58.504Z,5.00
2018-08-28T12:07:25.011Z,3.20
2018-08-28T12:09:52.645Z,5.60
2018-08-28T12:12:19.460Z,6.40
2018-08-28T12:14:46.088Z,4.60
2018-08-28T12:17:14.239Z,6.00
2018-08-28T12:19:41.203Z,5.40
2018-08-28T12:22:07.720Z,5.00
2018-08-28T12:24:34.667Z,6.40
2018-08-28T12:27:01.188Z,5.60
2018-08-28T12:29:27.727Z,5.80
2018-08-28T12:31:56.233Z,5.00
2018-08-28T12:34:22.878Z,5.80
2018-08-28T12:36:49.497Z,6.00
2018-08-28T12:39:16.474Z,5.00
2018-08-28T12:41:43.609Z,5.60
2018-08-28T12:44:10.499Z,5.00
2018-08-28T12:46:37.918Z,6.00
2018-08-28T12:49:04.435Z,6.00
2018-08-28T12:51:31.010Z,6.00
2018-08-28T12:53:57.815Z,4.40
2018-08-28T12:56:24.704Z,5.60
2018-08-28T12:58:51.482Z,5.40
2018-08-28T13:01:19.270Z,4.60
2018-08-28T13:03:46.380Z,6.00
2018-08-28T13:06:14.493Z,6.00
2018-08-28T13:08:41.871Z,5.00
2018-08-28T13:11:08.354Z,5.00
2018-08-28T13:13:34.880Z,5.00
2018-08-28T13:16:02.358Z,5.00
2018-08-28T13:18:28.821Z,5.00
2018-08-28T13:20:55.387Z,5.20
2018-08-28T13:23:22.203Z,5.60
2018-08-28T13:25:48.693Z,4.20
2018-08-28T13:28:15.966Z,5.20
2018-08-28T13:30:42.737Z,6.80
2018-08-28T13:33:11.445Z,6.00
2018-08-28T13:35:40.656Z,6.20
2018-08-28T13:38:07.854Z,6.80
2018-08-28T13:40:36.161Z,5.60
2018-08-28T13:43:03.674Z,4.80
2018-08-28T13:45:31.361Z,4.40
2018-08-28T13:47:58.455Z,5.80
2018-08-28T13:50:24.914Z,6.80
2018-08-28T13:52:51.675Z,3.00
2018-08-28T13:55:18.127Z,5.20
2018-08-28T13:57:44.627Z,4.40
2018-08-28T14:00:11.508Z,1.00
2018-08-28T14:02:38.005Z,6.00
2018-08-28T14:05:05.755Z,6.00
2018-08-28T14:07:32.667Z,7.00
2018-08-28T14:09:59.274Z,5.00
2018-08-28T14:12:25.887Z,3.60
2018-08-28T14:15:02.639Z,5.20
2018-08-28T14:17:29.125Z,6.80
2018-08-28T14:19:55.617Z,6.00
2018-08-28T14:22:22.489Z,5.40
2018-08-28T14:24:48.941Z,2.80
2018-08-28T14:27:15.519Z,4.00
2018-08-28T14:29:42.285Z,6.20
2018-08-28T14:32:08.810Z,4.00
2018-08-28T14:34:35.413Z,7.00
2018-08-28T14:37:02.852Z,5.00
2018-08-28T14:39:29.394Z,4.00
2018-08-28T14:41:57.105Z,3.60
2018-08-28T14:44:28.305Z,5.20
2018-08-28T14:46:56.117Z,5.20
2018-08-28T14:49:22.654Z,4.00
2018-08-28T14:51:49.650Z,5.00
2018-08-28T14:54:18.576Z,4.20
2018-08-28T14:56:45.544Z,5.40
2018-08-28T14:59:14.328Z,6.80
2018-08-28T15:01:40.898Z,5.00
2018-08-28T15:04:07.413Z,4.00
2018-08-28T15:06:35.494Z,4.00
2018-08-28T15:09:01.962Z,5.40
2018-08-28T15:11:30.103Z,6.00
2018-08-28T15:13:56.609Z,5.60
2018-08-28T15:16:23.258Z,5.00
2018-08-28T15:18:50.064Z,4.00
2018-08-28T15:21:16.577Z,5.40
2018-08-28T15:23:43.323Z,5.00
2018-08-28T15:26:10.195Z,6.80
2018-08-28T15:28:37.208Z,6.00
2018-08-28T15:31:03.719Z,5.00
2018-08-28T15:33:32.828Z,5.00
2018-08-28T15:35:59.280Z,5.00
2018-08-28T15:38:25.898Z,6.00
2018-08-28T15:40:53.433Z,5.00
2018-08-28T15:43:20.909Z,4.40
2018-08-28T15:45:47.400Z,6.40
2018-08-28T15:48:14.986Z,5.00
2018-08-28T15:50:41.498Z,6.00
2018-08-28T15:53:09.630Z,5.80
2018-08-28T15:55:37.351Z,6.00
2018-08-28T15:58:03.822Z,5.20
2018-08-28T16:00:30.339Z,5.00
2018-08-28T16:02:57.936Z,6.00
2018-08-28T16:05:24.422Z,5.00
2018-08-28T16:07:51.330Z,7.20
2018-08-28T16:10:18.225Z,6.00
2018-08-28T16:12:44.759Z,5.00
2018-08-28T16:15:11.230Z,5.00
2018-08-28T16:17:38.075Z,5.20
2018-08-28T16:20:04.662Z,4.00
2018-08-28T16:22:31.225Z,7.20
2018-08-28T16:24:59.628Z,2.00
2018-08-28T16:27:26.282Z,4.00
2018-08-28T16:29:53.446Z,5.00
2018-08-28T16:32:21.158Z,7.00
2018-08-28T16:34:47.686Z,4.20
2018-08-28T16:37:14.202Z,7.20
2018-08-28T16:39:41.047Z,6.80
2018-08-28T16:42:07.743Z,7.00
2018-08-28T16:44:34.375Z,9.00
2018-08-28T16:47:05.360Z,4.00
2018-08-28T16:49:32.213Z,5.00
2018-08-28T16:51:58.698Z,5.60
2018-08-28T16:54:26.478Z,7.40
2018-08-28T16:56:55.248Z,7.00
2018-08-28T16:59:22.742Z,4.80
2018-08-28T17:01:50.110Z,3.20
2018-08-28T17:04:16.621Z,7.00
2018-08-28T17:06:44.070Z,5.20
2018-08-28T17:09:11.541Z,7.80
2018-08-28T17:11:38.069Z,7.40
2018-08-28T17:14:06.285Z,7.60
2018-08-28T17:16:33.075Z,5.20
2018-08-28T17:18:59.692Z,7.00
2018-08-28T17:21:26.814Z,6.20
2018-08-28T17:23:54.562Z,7.40
2018-08-28T17:26:22.966Z,6.60
2018-08-28T17:28:49.461Z,7.60
2018-08-28T17:31:16.911Z,8.20
2018-08-28T17:33:43.580Z,7.20
2018-08-28T17:36:10.439Z,8.00
2018-08-28T17:38:38.480Z,5.40
2018-08-28T17:41:06.097Z,6.60
2018-08-28T17:43:33.113Z,7.60
2018-08-28T17:45:59.876Z,7.00
2018-08-28T17:48:26.415Z,7.00
2018-08-28T17:50:52.892Z,6.80
2018-08-28T17:53:19.710Z,7.00
2018-08-28T17:55:46.574Z,5.40
2018-08-28T17:58:13.420Z,6.00
2018-08-28T18:00:40.334Z,6.40
2018-08-28T18:03:06.913Z,6.40
2018-08-28T18:05:33.495Z,9.20
2018-08-28T18:08:00.494Z,8.20
2018-08-28T18:10:26.977Z,6.00
2018-08-28T18:12:53.502Z,5.40
2018-08-28T18:15:20.552Z,8.60
2018-08-28T18:17:48.105Z,7.60
2018-08-28T18:20:16.283Z,8.80
2018-08-28T18:22:44.040Z,6.20
2018-08-28T18:25:10.578Z,8.00
2018-08-28T18:27:37.180Z,7.40
2018-08-28T18:30:04.055Z,9.80
2018-08-28T18:32:30.589Z,10.00
2018-08-28T18:34:57.079Z,9.60
2018-08-28T18:37:23.881Z,8.00
2018-08-28T18:39:52.257Z,7.00
2018-08-28T18:42:19.412Z,10.00
2018-08-28T18:44:45.871Z,8.00
2018-08-28T18:47:12.372Z,11.00
2018-08-28T18:49:39.953Z,8.40
2018-08-28T18:52:06.462Z,8.20
2018-08-28T18:54:34.365Z,8.00
2018-08-28T18:57:02.462Z,7.00
2018-08-28T18:59:28.985Z,10.40
2018-08-28T19:01:56.070Z,7.00
2018-08-28T19:04:23.949Z,9.60
2018-08-28T19:06:50.435Z,7.00
2018-08-28T19:09:17.780Z,10.00
2018-08-28T19:11:46.613Z,10.00
2018-08-28T19:14:13.677Z,9.80
2018-08-28T19:16:40.170Z,7.40
2018-08-28T19:19:07.252Z,10.20
2018-08-28T19:21:34.388Z,8.20
2018-08-28T19:24:02.095Z,9.80
2018-08-28T19:26:29.724Z,10.00
2018-08-28T19:28:56.188Z,9.40
2018-08-28T19:31:23.253Z,10.40
2018-08-28T19:33:52.138Z,9.20
2018-08-28T19:36:19.831Z,10.00
2018-08-28T19:38:47.334Z,10.00
2018-08-28T19:41:14.127Z,9.20
2018-08-28T19:43:40.758Z,10.40
2018-08-28T19:46:07.779Z,9.80
2018-08-28T19:48:35.237Z,14.60
2018-08-28T19:51:02.353Z,9.80
2018-08-28T19:53:28.955Z,9.60
2018-08-28T19:55:56.901Z,11.80
2018-08-28T19:58:24.441Z,9.80
2018-08-28T20:00:50.919Z,11.20
2018-08-28T20:03:18.518Z,9.80
2018-08-28T20:05:45.140Z,10.00
2018-08-28T20:08:11.705Z,9.80
2018-08-28T20:10:38.814Z,11.20
2018-08-28T20:13:05.381Z,10.00
2018-08-28T20:15:31.923Z,9.20
2018-08-28T20:20:33.341Z,12.40
2018-08-28T20:22:59.865Z,9.80
2018-08-28T20:25:26.655Z,12.00
2018-08-28T20:27:53.126Z,10.80
2018-08-28T20:30:21.246Z,9.20
2018-08-28T20:32:49.950Z,11.60
2018-08-28T20:35:17.270Z,12.60
2018-08-28T20:37:44.528Z,10.80
2018-08-28T20:40:12.575Z,13.80
2018-08-28T20:42:40.657Z,12.00
2018-08-28T20:45:07.301Z,12.60
2018-08-28T20:47:35.402Z,10.40
2018-08-28T20:50:02.584Z,11.20
2018-08-28T20:52:30.779Z,9.80
2018-08-28T20:55:01.965Z,9.40
2018-08-28T20:57:29.145Z,7.40
2018-08-28T20:59:55.767Z,12.00
2018-08-28T21:02:22.793Z,10.00
2018-08-28T21:04:51.395Z,10.00
2018-08-28T21:07:18.447Z,9.20
2018-08-28T21:09:44.969Z,9.20
2018-08-28T21:12:12.144Z,11.00
2018-08-28T21:14:39.602Z,6.60
2018-08-28T21:17:06.721Z,11.20
2018-08-28T21:19:35.267Z,10.00
2018-08-28T21:22:04.120Z,12.60
2018-08-28T21:24:39.486Z,7.40
2018-08-28T21:27:06.386Z,10.00
2018-08-28T21:29:33.385Z,4.40
2018-08-28T21:32:00.516Z,9.40
2018-08-28T21:34:27.302Z,7.80
2018-08-28T21:36:58.147Z,9.00
2018-08-28T21:39:25.655Z,9.40
2018-08-28T21:41:54.466Z,9.60
2018-08-28T21:44:21.017Z,7.00
2018-08-28T21:46:47.511Z,5.80
2018-08-28T21:49:14.461Z,5.20
2018-08-28T21:51:41.944Z,6.80
2018-08-28T21:54:08.397Z,7.40
2018-08-28T21:56:36.173Z,7.80
2018-08-28T21:59:03.179Z,7.00
2018-08-28T22:01:29.745Z,6.40
2018-08-28T22:03:56.854Z,6.80
2018-08-28T22:06:23.361Z,5.80
2018-08-28T22:08:50.647Z,6.00
2018-08-28T22:11:17.485Z,4.20
2018-08-28T22:13:43.962Z,7.80
2018-08-28T22:16:10.486Z,4.80
2018-08-28T22:18:37.371Z,7.00
2018-08-28T22:21:03.816Z,6.00
2018-08-28T22:23:30.296Z,9.00
2018-08-28T22:25:57.202Z,6.60
2018-08-28T22:28:23.755Z,6.20
2018-08-28T22:30:50.237Z,4.00
2018-08-28T22:33:17.203Z,6.60
2018-08-28T22:35:43.677Z,6.40
2018-08-28T22:38:10.148Z,6.00
2018-08-28T22:40:36.601Z,4.80
2018-08-28T22:43:04.438Z,6.60
2018-08-28T22:45:30.965Z,4.00
2018-08-28T22:47:57.442Z,7.00
2018-08-28T22:52:58.014Z,3.00
2018-08-28T22:55:24.501Z,6.00
2018-08-28T22:57:50.957Z,3.20
2018-08-28T23:00:17.424Z,5.60
2018-08-28T23:02:44.349Z,6.00
2018-08-28T23:05:10.804Z,5.20
2018-08-28T23:07:37.245Z,4.00
2018-08-28T23:10:03.706Z,5.20
2018-08-28T23:12:30.562Z,6.00
2018-08-28T23:14:57.082Z,3.60
2018-08-28T23:17:23.560Z,4.00
2018-08-28T23:19:50.019Z,4.80
2018-08-28T23:22:18.088Z,5.60
2018-08-28T23:24:44.560Z,6.00
2018-08-28T23:27:11.777Z,6.40
2018-08-28T23:29:38.220Z,5.60
2018-08-28T23:32:05.197Z,6.00
2018-08-28T23:34:31.673Z,4.00
2018-08-28T23:36:58.463Z,5.20
2018-08-28T23:39:25.563Z,4.00
2018-08-28T23:41:52.020Z,7.80
2018-08-28T23:44:18.484Z,6.20
2018-08-28T23:46:45.757Z,5.20
2018-08-28T23:49:12.702Z,6.00
2018-08-28T23:51:39.269Z,4.00
2018-08-28T23:54:05.794Z,5.60
2018-08-28T23:56:32.383Z,4.00
2018-08-28T23:58:59.266Z,3.00
